Time;durP1;ratioP1;P1;durP2;ratioP2;P2;SDS_P1;SDS_P2;PMS_P1;PMS_P2;Temp;Humidity;BMP_temperature;BMP_pressure;BME280_temperature;BME280_humidity;BME280_pressure;Samples;Min_cycle;Max_cycle;Signal;HPM_P1;HPM_P2
2021/12/08 00:02:01;;;;;;;49.22;27.88;;;;;;;-1.40;100.00;99291.88;5071823;28;20112;-78
2021/12/08 00:04:26;;;;;;;53.30;29.20;;;;;;;-1.62;100.00;99262.16;5054032;28;20063;-77
2021/12/08 00:06:52;;;;;;;50.78;27.48;;;;;;;-1.49;100.00;99297.00;5054152;28;20116;-77
2021/12/08 00:09:29;;;;;;;53.70;31.80;;;;;;;-1.61;100.00;99276.63;5072457;28;20020;-77
2021/12/08 00:14:39;;;;;;;49.53;30.58;;;;;;;-1.52;100.00;99284.25;5072072;28;20047;-77
2021/12/08 00:17:05;;;;;;;49.67;28.50;;;;;;;-1.49;100.00;99291.06;5071917;28;20496;-77
2021/12/08 00:19:31;;;;;;;50.13;29.00;;;;;;;-1.63;100.00;99261.31;5072071;28;20025;-77
2021/12/08 00:21:57;;;;;;;46.58;26.02;;;;;;;-1.57;100.00;99266.38;5071680;28;20527;-77
2021/12/08 00:24:22;;;;;;;47.15;28.23;;;;;;;-1.55;100.00;99262.13;5071998;28;20024;-77
2021/12/08 00:26:48;;;;;;;47.85;27.00;;;;;;;-1.48;100.00;99274.88;5053685;28;20024;-77
2021/12/08 00:29:13;;;;;;;43.55;24.38;;;;;;;-1.42;100.00;99275.72;5071798;28;20032;-77
2021/12/08 00:31:40;;;;;;;49.55;27.35;;;;;;;-1.45;100.00;99268.03;5071703;28;20031;-77
2021/12/08 00:34:06;;;;;;;51.78;29.88;;;;;;;-1.48;100.00;99269.75;5071759;28;20435;-77
2021/12/08 00:36:41;;;;;;;46.90;25.27;;;;;;;-1.60;100.00;99243.44;5071816;28;20135;-77
2021/12/08 00:39:06;;;;;;;48.15;26.90;;;;;;;-1.38;100.00;99274.00;5071713;28;20035;-77
2021/12/08 00:41:31;;;;;;;46.42;26.35;;;;;;;-1.45;100.00;99264.66;5071735;28;20020;-76
2021/12/08 00:43:57;;;;;;;48.47;27.17;;;;;;;-1.34;100.00;99273.13;5074789;28;20388;-76
2021/12/08 00:46:22;;;;;;;50.25;28.35;;;;;;;-1.37;100.00;99286.75;5076008;28;20032;-76
2021/12/08 00:48:50;;;;;;;49.83;28.27;;;;;;;-1.39;100.00;99282.50;5057753;28;20021;-76
2021/12/08 00:51:16;;;;;;;48.83;27.63;;;;;;;-1.36;100.00;99274.81;5075893;28;20127;-77
2021/12/08 00:53:42;;;;;;;49.25;27.00;;;;;;;-1.37;100.00;99268.03;5075774;28;20025;-78
2021/12/08 00:56:07;;;;;;;50.95;26.20;;;;;;;-1.34;100.00;99266.31;5075320;28;20036;-79
2021/12/08 00:58:33;;;;;;;61.70;32.92;;;;;;;-1.31;100.00;99281.63;5075475;28;20056;-78
2021/12/08 01:00:58;;;;;;;57.58;32.22;;;;;;;-1.36;100.00;99280.78;5032721;28;20045;-78
2021/12/08 01:03:24;;;;;;;58.50;34.47;;;;;;;-1.38;100.00;99266.34;5033183;28;20436;-78
2021/12/08 01:05:52;;;;;;;60.15;32.15;;;;;;;-1.44;100.00;99253.56;5032951;28;20045;-78
2021/12/08 01:08:20;;;;;;;61.78;34.05;;;;;;;-1.47;100.00;99264.66;5033084;28;20071;-78
2021/12/08 01:10:48;;;;;;;63.70;35.60;;;;;;;-1.49;100.00;99251.03;5033213;28;20057;-78
2021/12/08 01:13:15;;;;;;;59.92;33.25;;;;;;;-1.44;100.00;99258.69;5016060;28;20033;-78
2021/12/08 01:15:45;;;;;;;62.88;34.55;;;;;;;-1.49;100.00;99255.31;5032677;28;20041;-78
2021/12/08 01:18:11;;;;;;;60.25;33.85;;;;;;;-1.39;100.00;99265.47;5016224;28;20455;-78
2021/12/08 01:20:37;;;;;;;56.22;31.58;;;;;;;-1.44;100.00;99256.13;5016172;28;20140;-78
2021/12/08 01:23:04;;;;;;;59.67;35.22;;;;;;;-1.58;100.00;99225.53;5032629;28;20033;-78
2021/12/08 01:25:29;;;;;;;61.20;36.67;;;;;;;-1.41;100.00;99258.66;5032569;28;20034;-78
2021/12/08 01:27:55;;;;;;;57.97;30.83;;;;;;;-1.49;100.00;99248.47;5032713;28;20033;-78
2021/12/08 01:30:20;;;;;;;72.47;36.53;;;;;;;-1.35;100.00;99261.19;5032669;28;20524;-78
2021/12/08 01:32:46;;;;;;;57.13;32.05;;;;;;;-1.45;100.00;99237.41;5067757;28;20491;-78
2021/12/08 01:35:12;;;;;;;53.83;31.30;;;;;;;-1.41;100.00;99239.09;5074522;28;20036;-79
2021/12/08 01:37:38;;;;;;;65.15;36.42;;;;;;;-1.40;100.00;99238.22;5074855;28;20031;-79
2021/12/08 01:40:06;;;;;;;64.10;36.03;;;;;;;-1.35;100.00;99235.63;5074523;28;20040;-79
2021/12/08 01:42:36;;;;;;;58.30;31.50;;;;;;;-1.31;100.00;99240.75;5074615;28;20500;-78
2021/12/08 01:47:47;;;;;;;64.13;36.17;;;;;;;-1.56;100.00;99211.94;5074663;28;20044;-78
2021/12/08 01:50:13;;;;;;;67.38;35.95;;;;;;;-1.41;100.00;99240.78;5074390;28;20028;-77
2021/12/08 01:52:40;;;;;;;65.65;36.78;;;;;;;-1.36;100.00;99251.81;5074459;28;20090;-77
2021/12/08 01:55:06;;;;;;;63.40;35.03;;;;;;;-1.52;100.00;99218.72;5073225;28;20384;-78
2021/12/08 01:57:32;;;;;;;62.95;33.40;;;;;;;-1.42;100.00;99234.84;5074678;28;20020;-77
2021/12/08 01:59:58;;;;;;;62.60;34.72;;;;;;;-1.53;100.00;99211.03;5031580;28;20053;-76
2021/12/08 02:02:23;;;;;;;66.55;34.88;;;;;;;-1.46;100.00;99217.84;5032010;28;20072;-77
2021/12/08 02:04:48;;;;;;;62.85;35.45;;;;;;;-1.40;100.00;99235.66;5031899;28;20042;-78
2021/12/08 02:07:14;;;;;;;66.70;36.45;;;;;;;-1.55;100.00;99200.00;5031714;28;20034;-77
2021/12/08 02:09:40;;;;;;;68.25;36.47;;;;;;;-1.41;100.00;99226.31;5031920;28;20718;-77
2021/12/08 02:12:05;;;;;;;67.00;35.15;;;;;;;-1.49;100.00;99207.63;5031695;28;20030;-77
2021/12/08 02:14:32;;;;;;;69.78;36.75;;;;;;;-1.36;100.00;99222.03;5031744;28;20048;-77
2021/12/08 02:16:57;;;;;;;73.53;39.35;;;;;;;-1.36;100.00;99226.28;5014951;28;20420;-77
2021/12/08 02:19:23;;;;;;;66.20;34.78;;;;;;;-1.43;100.00;99197.38;5031805;28;20040;-77
2021/12/08 02:21:52;;;;;;;74.43;39.53;;;;;;;-1.40;100.00;99188.84;5031785;28;20537;-77
2021/12/08 02:24:19;;;;;;;68.78;35.13;;;;;;;-1.38;100.00;99195.66;5031738;28;20073;-78
2021/12/08 02:26:46;;;;;;;69.90;35.63;;;;;;;-1.56;100.00;99165.09;5031622;28;20041;-77
2021/12/08 02:29:18;;;;;;;72.03;39.53;;;;;;;-1.39;100.00;99191.41;5031314;28;20550;-78
2021/12/08 02:47:55;;;;;;;61.88;34.40;;;;;;;-1.46;100.00;99146.31;5073718;28;20051;-78
2021/12/08 02:50:25;;;;;;;75.13;38.92;;;;;;;-1.47;100.00;99147.19;5073777;28;20097;-78
2021/12/08 02:52:51;;;;;;;77.22;38.28;;;;;;;-1.40;100.00;99150.53;5073709;28;20032;-78
2021/12/08 02:55:17;;;;;;;65.90;33.58;;;;;;;-1.53;100.00;99127.63;5073197;28;20032;-78
2021/12/08 02:57:43;;;;;;;68.57;36.85;;;;;;;-1.41;100.00;99141.16;5073680;28;20032;-78
2021/12/08 03:00:11;;;;;;;59.25;32.47;;;;;;;-1.36;100.00;99145.38;5073307;28;20393;-78
2021/12/08 03:02:37;;;;;;;73.57;37.80;;;;;;;-1.31;100.00;99145.34;5055325;28;20471;-78
2021/12/08 03:05:03;;;;;;;64.50;34.13;;;;;;;-1.33;100.00;99142.81;5054891;28;20082;-77
2021/12/08 03:07:29;;;;;;;82.63;39.80;;;;;;;-1.33;100.00;99141.97;5055213;28;20036;-77
2021/12/08 03:09:54;;;;;;;73.63;35.72;;;;;;;-1.34;100.00;99127.50;5055014;28;20032;-77
2021/12/08 03:12:30;;;;;;;70.60;35.70;;;;;;;-1.49;100.00;99104.63;5072807;28;20111;-78
2021/12/08 03:14:56;;;;;;;72.28;35.70;;;;;;;-1.36;100.00;99132.59;5072756;28;20029;-77
2021/12/08 03:17:21;;;;;;;72.20;38.65;;;;;;;-1.35;100.00;99120.69;5072876;28;20326;-78
2021/12/08 03:19:47;;;;;;;67.82;35.53;;;;;;;-1.51;100.00;99089.31;5054989;28;20029;-77
2021/12/08 03:22:12;;;;;;;64.22;35.33;;;;;;;-1.51;100.00;99084.22;5072560;28;20517;-77
2021/12/08 03:24:42;;;;;;;69.90;35.85;;;;;;;-1.46;100.00;99094.38;5054953;28;20024;-77
2021/12/08 03:27:17;;;;;;;72.70;39.83;;;;;;;-1.34;100.00;99100.25;5072759;28;20060;-77
2021/12/08 03:32:16;;;;;;;75.63;38.45;;;;;;;-1.40;100.00;99079.00;5072539;28;20036;-77
2021/12/08 03:34:51;;;;;;;69.88;37.17;;;;;;;-1.49;100.00;99064.59;5072556;28;20024;-77
2021/12/08 03:37:21;;;;;;;77.00;40.50;;;;;;;-1.36;100.00;99096.84;5072175;28;20025;-77
2021/12/08 03:39:49;;;;;;;75.53;39.83;;;;;;;-1.42;100.00;99078.19;5072493;28;20028;-77
2021/12/08 03:42:16;;;;;;;79.47;38.60;;;;;;;-1.37;100.00;99076.44;5054234;28;20063;-77
2021/12/08 03:44:41;;;;;;;77.93;41.70;;;;;;;-1.52;100.00;99052.72;5072365;28;20025;-77
2021/12/08 03:47:16;;;;;;;75.82;41.60;;;;;;;-1.41;100.00;99072.22;5071840;28;20032;-77
2021/12/08 03:49:43;;;;;;;94.20;46.78;;;;;;;-1.54;100.00;99044.19;5072328;28;20056;-77
2021/12/08 03:52:09;;;;;;;80.05;39.25;;;;;;;-1.56;100.00;99039.94;5072048;28;20120;-77
2021/12/08 03:54:35;;;;;;;97.80;46.15;;;;;;;-1.50;100.00;99032.25;5072070;28;20679;-77
2021/12/08 03:57:00;;;;;;;92.90;45.50;;;;;;;-1.61;100.00;99029.78;5071899;28;20028;-77
2021/12/08 03:59:26;;;;;;;77.93;40.30;;;;;;;-1.62;100.00;99017.03;5072244;28;20055;-77
2021/12/08 04:01:51;;;;;;;172.85;88.03;;;;;;;-1.57;100.00;99025.50;5071977;28;20116;-77
2021/12/08 04:04:16;;;;;;;115.80;51.97;;;;;;;-1.54;100.00;99035.69;5071905;28;20471;-77
2021/12/08 04:06:48;;;;;;;84.80;43.10;;;;;;;-1.52;100.00;99041.63;5072373;28;20033;-78
2021/12/08 04:09:25;;;;;;;74.65;38.95;;;;;;;-1.46;100.00;99051.81;5071913;28;20056;-78
2021/12/08 04:11:51;;;;;;;81.13;42.78;;;;;;;-1.47;100.00;99039.06;5053998;28;20040;-78
2021/12/08 04:14:19;;;;;;;77.68;43.13;;;;;;;-1.47;100.00;99036.50;5071595;28;20468;-78
2021/12/08 04:16:57;;;;;;;91.68;46.28;;;;;;;-1.52;100.00;99022.06;5071782;28;20121;-78
2021/12/08 04:19:23;;;;;;;93.35;45.63;;;;;;;-1.52;100.00;99022.06;5072125;28;20032;-79
2021/12/08 04:21:51;;;;;;;85.28;45.58;;;;;;;-1.61;100.00;99011.91;5072000;28;20067;-77
2021/12/08 04:24:18;;;;;;;100.72;47.63;;;;;;;-1.68;100.00;99005.16;5071984;28;20111;-77
2021/12/08 04:26:49;;;;;;;92.18;43.88;;;;;;;-1.59;100.00;99017.88;5053863;28;20024;-77
2021/12/08 04:29:17;;;;;;;80.00;39.30;;;;;;;-1.64;100.00;99008.56;5071902;28;20029;-77
2021/12/08 04:31:44;;;;;;;78.32;40.17;;;;;;;-1.56;100.00;99030.63;5072041;28;20044;-77
2021/12/08 04:34:26;;;;;;;74.70;37.92;;;;;;;-1.68;100.00;99012.00;5028953;28;20069;-77
2021/12/08 04:36:55;;;;;;;76.38;37.85;;;;;;;-1.70;100.00;99022.19;5012853;28;20033;-77
2021/12/08 04:39:29;;;;;;;83.13;40.13;;;;;;;-1.64;100.00;99028.97;5029035;28;20121;-78
2021/12/08 04:42:03;;;;;;;78.68;39.88;;;;;;;-1.73;100.00;99008.59;5029442;28;20103;-78
2021/12/08 04:44:39;;;;;;;94.82;43.45;;;;;;;-1.66;100.00;99028.97;5029456;28;20030;-79
2021/12/08 04:52:45;;;;;;;98.20;43.30;;;;;;;-1.61;100.00;99046.81;5029087;28;20125;-77
2021/12/08 05:09:10;;;;;;;92.22;41.17;;;;;;;-1.64;100.00;99024.72;5009465;28;20133;-78
2021/12/08 05:11:40;;;;;;;80.13;40.65;;;;;;;-1.59;100.00;99028.06;5009525;28;20105;-77
2021/12/08 05:14:26;;;;;;;58.30;28.63;;;;;;;-1.66;100.00;99012.81;5009161;28;20037;-77
2021/12/08 05:17:02;;;;;;;84.05;40.05;;;;;;;-1.74;100.00;99001.81;5009213;28;20049;-78
2021/12/08 05:19:30;;;;;;;70.30;34.30;;;;;;;-1.56;100.00;99032.28;5009006;28;20033;-78
2021/12/08 05:22:13;;;;;;;69.43;35.63;;;;;;;-1.57;100.00;99030.59;4992851;28;20034;-79
2021/12/08 05:24:42;;;;;;;402.88;188.63;;;;;;;-1.61;100.00;99028.94;5009254;28;20034;-79
2021/12/08 05:27:15;;;;;;;77.40;38.33;;;;;;;-1.63;100.00;99033.22;5008963;28;20504;-79
2021/12/08 05:29:50;;;;;;;76.38;39.22;;;;;;;-1.50;100.00;99057.81;4995309;28;20429;-78
2021/12/08 05:32:16;;;;;;;69.38;36.60;;;;;;;-1.59;100.00;99030.63;5012658;28;20552;-79
2021/12/08 05:34:42;;;;;;;84.20;42.90;;;;;;;-1.52;100.00;99041.63;5018279;28;20033;-78
2021/12/08 05:37:12;;;;;;;380.50;215.93;;;;;;;-1.63;100.00;99030.66;5056714;28;20024;-78
2021/12/08 05:39:40;;;;;;;92.47;48.72;;;;;;;-1.64;100.00;99016.22;5074861;28;20027;-78
2021/12/08 05:42:11;;;;;;;73.53;36.33;;;;;;;-1.58;100.00;99017.00;5074463;28;20551;-78
2021/12/08 05:44:38;;;;;;;;;;;;;;;-1.45;100.00;99047.56;5040715;28;20086;-78
2021/12/08 05:47:09;;;;;;;78.43;40.10;;;;;;;-1.45;100.00;99045.00;5022581;28;19908;-79
2021/12/08 05:49:36;;;;;;;87.07;47.20;;;;;;;-1.49;100.00;99053.53;5056849;28;20060;-78
2021/12/08 05:52:02;;;;;;;67.50;32.05;;;;;;;-1.55;100.00;99044.22;5067412;28;20639;-79
2021/12/08 05:54:34;;;;;;;77.55;37.40;;;;;;;-1.61;100.00;99016.16;5054023;28;20048;-78
2021/12/08 05:57:10;;;;;;;85.05;39.58;;;;;;;-1.53;100.00;99042.50;5054648;28;20100;-78
2021/12/08 05:59:36;;;;;;;67.55;33.63;;;;;;;-1.53;100.00;99040.78;5001552;28;20037;-78
2021/12/08 06:02:34;;;;;;;77.10;36.20;;;;;;;-1.53;100.00;99043.34;5054382;28;20498;-78
2021/12/08 06:05:01;;;;;;;79.00;39.60;;;;;;;-1.65;100.00;99017.91;4973149;28;20070;-78
2021/12/08 06:07:27;;;;;;;76.72;35.33;;;;;;;-1.53;100.00;99033.13;4972956;28;20597;-77
2021/12/08 06:10:13;;;;;;;75.63;35.42;;;;;;;-1.67;100.00;99017.06;4973120;28;20042;-78
2021/12/08 06:12:49;;;;;;;73.93;36.72;;;;;;;-1.61;100.00;99028.94;4924624;28;20046;-78
2021/12/08 06:15:17;;;;;;;82.70;37.70;;;;;;;-1.66;100.00;99007.69;4972472;28;20045;-78
2021/12/08 06:17:47;;;;;;;;;;;;;;;-1.52;100.00;99032.28;4973350;28;20410;-78
2021/12/08 06:20:18;;;;;;;103.53;46.65;;;;;;;-1.73;100.00;99006.03;4972722;28;20024;-77
2021/12/08 06:22:47;;;;;;;101.53;51.50;;;;;;;-1.56;100.00;99040.81;4956679;28;20039;-78
2021/12/08 06:25:14;;;;;;;90.30;42.72;;;;;;;-1.65;100.00;99014.50;4972674;28;20705;-78
2021/12/08 06:27:40;;;;;;;83.32;37.78;;;;;;;-1.55;100.00;99032.31;4972783;28;20047;-78
2021/12/08 06:30:10;;;;;;;77.53;34.05;;;;;;;-1.61;100.00;99017.00;4972731;28;20042;-78
2021/12/08 06:32:35;;;;;;;83.18;37.88;;;;;;;-1.51;100.00;99041.63;4972612;28;20041;-78
2021/12/08 06:35:08;;;;;;;67.45;32.50;;;;;;;-1.64;100.00;99021.31;4972633;28;20043;-78
2021/12/08 06:37:39;;;;;;;74.35;39.30;;;;;;;-1.60;100.00;99030.63;4957075;28;20047;-77
2021/12/08 06:40:13;;;;;;;67.28;34.03;;;;;;;-1.54;100.00;99044.19;4971902;28;20558;-77
2021/12/08 06:42:41;;;;;;;73.80;34.15;;;;;;;-1.61;100.00;99050.22;5042764;28;20025;-78
2021/12/08 06:45:10;;;;;;;71.68;34.85;;;;;;;-1.76;100.00;99009.50;5053709;28;20094;-79
2021/12/08 06:47:35;;;;;;;80.35;40.38;;;;;;;-1.57;100.00;99048.47;5053680;28;20032;-78
2021/12/08 06:50:12;;;;;;;100.85;43.80;;;;;;;-1.56;100.00;99043.38;5053446;28;20028;-76
2021/12/08 06:52:39;;;;;;;71.90;37.22;;;;;;;-1.59;100.00;99035.75;5053406;28;20451;-77
2021/12/08 06:55:14;;;;;;;69.75;36.33;;;;;;;-1.52;100.00;99051.84;5052221;28;20568;-77
2021/12/08 06:57:44;;;;;;;73.10;35.38;;;;;;;-1.55;100.00;99067.22;5052059;28;20396;-78
2021/12/08 07:00:34;;;;;;;67.53;33.63;;;;;;;-1.64;100.00;99029.81;5052970;28;20086;-78
2021/12/08 07:06:05;;;;;;;68.55;30.70;;;;;;;-1.58;100.00;99052.75;5052942;28;20433;-77
2021/12/08 07:08:15;;;;;;;61.78;31.13;;;;;;;-1.66;100.00;99033.22;5052875;28;20091;-77
2021/12/08 07:10:44;;;;;;;60.08;29.25;;;;;;;-1.55;100.00;99046.78;5053218;28;20025;-78
2021/12/08 07:13:14;;;;;;;59.17;32.53;;;;;;;-1.53;100.00;99051.00;5052919;28;20082;-78
2021/12/08 07:15:45;;;;;;;63.63;30.85;;;;;;;-1.52;100.00;99042.50;5052892;28;20033;-78
2021/12/08 07:18:16;;;;;;;62.67;32.38;;;;;;;-1.48;100.00;99045.00;5072904;28;20074;-78
2021/12/08 07:20:49;;;;;;;61.28;30.63;;;;;;;-1.47;100.00;99047.56;5073125;28;20040;-78
2021/12/08 07:23:27;;;;;;;68.07;37.63;;;;;;;-1.47;100.00;99041.63;5072546;28;20026;-77
2021/12/08 07:25:59;;;;;;;76.50;38.45;;;;;;;-1.39;100.00;99044.94;5054878;28;20633;-78
2021/12/08 07:28:27;;;;;;;78.53;36.33;;;;;;;-1.51;100.00;99033.97;5054470;28;20035;-78
2021/12/08 07:30:58;;;;;;;75.78;37.17;;;;;;;-1.34;100.00;99056.81;5072629;28;20024;-78
2021/12/08 07:33:24;;;;;;;67.97;34.97;;;;;;;-1.35;100.00;99052.59;5072496;28;20027;-77
2021/12/08 07:35:55;;;;;;;67.47;35.63;;;;;;;-1.39;100.00;99037.28;5072538;28;20112;-78
2021/12/08 07:38:23;;;;;;;82.95;40.60;;;;;;;-1.48;100.00;99025.41;5054309;28;20025;-78
2021/12/08 07:41:08;;;;;;;75.00;35.67;;;;;;;-1.47;100.00;99028.84;5072503;28;20037;-77
2021/12/08 07:43:38;;;;;;;69.43;35.72;;;;;;;-1.42;100.00;99034.75;5072695;28;20502;-79
2021/12/08 07:46:07;;;;;;;72.05;36.92;;;;;;;-1.36;100.00;99039.81;5054250;28;20093;-79
2021/12/08 07:48:49;;;;;;;62.40;34.42;;;;;;;-1.47;100.00;99034.81;5072248;28;20527;-79
2021/12/08 07:51:21;;;;;;;65.25;34.00;;;;;;;-1.51;100.00;99039.09;5071794;28;20032;-78
2021/12/08 07:53:46;;;;;;;62.95;34.28;;;;;;;-1.59;100.00;99037.44;5071701;28;20021;-78
2021/12/08 07:56:16;;;;;;;68.45;38.38;;;;;;;-1.63;100.00;99041.72;5061811;28;20373;-79
2021/12/08 07:58:44;;;;;;;63.30;35.63;;;;;;;-1.58;100.00;99059.56;5042501;28;20021;-79
2021/12/08 08:01:24;;;;;;;62.10;33.10;;;;;;;-1.70;100.00;99034.97;5071398;28;20035;-79
2021/12/08 08:03:52;;;;;;;74.05;39.53;;;;;;;-1.65;100.00;99035.75;5054288;28;20036;-79
2021/12/08 08:06:23;;;;;;;66.63;35.95;;;;;;;-1.65;100.00;99038.31;5071908;28;20036;-80
2021/12/08 08:08:49;;;;;;;70.90;36.70;;;;;;;-1.71;100.00;99035.81;5071883;28;20020;-80
2021/12/08 08:11:22;;;;;;;82.03;41.05;;;;;;;-1.68;100.00;99028.16;5071727;28;20032;-79
2021/12/08 08:13:49;;;;;;;69.32;35.42;;;;;;;-1.64;100.00;99032.38;5071667;28;20490;-79
2021/12/08 08:16:19;;;;;;;66.93;36.35;;;;;;;-1.70;100.00;99026.47;5053558;28;20072;-79
2021/12/08 08:18:52;;;;;;;73.43;38.10;;;;;;;-1.82;100.00;99005.25;5072018;28;20028;-79
2021/12/08 08:21:21;;;;;;;71.22;37.08;;;;;;;-1.70;100.00;99026.47;5071879;28;20032;-79
2021/12/08 08:23:47;;;;;;;78.57;40.03;;;;;;;-1.62;100.00;99030.66;5071959;28;20562;-79
2021/12/08 08:26:14;;;;;;;78.03;40.13;;;;;;;-1.61;100.00;99041.69;5053733;28;20068;-79
2021/12/08 08:28:41;;;;;;;78.15;42.35;;;;;;;-1.78;100.00;99014.59;5053610;28;20475;-78
2021/12/08 08:31:24;;;;;;;77.75;37.08;;;;;;;-1.59;100.00;99040.84;5062868;28;20099;-79
2021/12/08 08:33:50;;;;;;;71.30;37.60;;;;;;;-1.58;100.00;99032.31;5059483;28;20020;-81
2021/12/08 08:36:20;;;;;;;70.88;37.10;;;;;;;-1.66;100.00;99028.97;5071385;28;20384;-79
2021/12/08 08:39:09;;;;;;;81.70;43.50;;;;;;;-1.52;100.00;99047.59;5058756;28;20108;-94
2021/12/08 08:41:48;;;;;;;92.20;44.60;;;;;;;-1.58;100.00;99042.53;4951495;29;20051;-80
2021/12/08 08:44:21;;;;;;;75.82;39.47;;;;;;;-1.56;100.00;99038.28;4948592;29;20040;-80
2021/12/08 08:46:48;;;;;;;83.72;44.17;;;;;;;-1.54;100.00;99036.53;4921289;29;20047;-80
2021/12/08 08:49:23;;;;;;;95.47;45.38;;;;;;;-1.63;100.00;99023.84;4916050;29;20577;-80
2021/12/08 08:51:59;;;;;;;77.82;39.63;;;;;;;-1.73;100.00;99000.94;4916274;29;20412;-82
2021/12/08 08:54:27;;;;;;;87.75;42.63;;;;;;;-1.53;100.00;99032.28;4916541;29;20035;-81
2021/12/08 08:57:01;;;;;;;73.38;36.85;;;;;;;-1.62;100.00;99024.69;4917252;29;20040;-80
2021/12/08 08:59:35;;;;;;;74.20;40.58;;;;;;;-1.47;100.00;99039.06;4915782;29;20028;-79
2021/12/08 09:02:08;;;;;;;72.65;39.28;;;;;;;-1.50;100.00;99034.81;4931881;29;20048;-79
2021/12/08 09:04:37;;;;;;;69.20;35.90;;;;;;;-1.40;100.00;99035.56;4934346;29;20091;-79
2021/12/08 09:07:10;;;;;;;54.97;29.40;;;;;;;-1.43;100.00;99040.69;4935380;29;20503;-79
2021/12/08 09:09:39;;;;;;;59.17;30.20;;;;;;;-1.57;100.00;99015.28;4935636;29;20039;-79
2021/12/08 09:12:11;;;;;;;58.20;31.27;;;;;;;-1.48;100.00;99038.19;4935237;29;20040;-80
2021/12/08 09:14:45;;;;;;;66.50;37.92;;;;;;;-1.38;100.00;99049.19;4935559;29;20036;-76
2021/12/08 09:17:21;;;;;;;73.53;40.75;;;;;;;-1.46;100.00;99030.53;4944867;28;20053;-77
2021/12/08 09:19:55;;;;;;;66.05;33.30;;;;;;;-1.52;100.00;99019.53;5035954;28;20029;-76
2021/12/08 09:22:29;;;;;;;57.05;30.00;;;;;;;-1.58;100.00;99011.03;5054799;28;20029;-77
2021/12/08 09:25:12;;;;;;;61.97;34.20;;;;;;;-1.51;100.00;99030.56;5037346;28;20037;-77
2021/12/08 09:27:44;;;;;;;58.40;31.50;;;;;;;-1.65;100.00;98988.97;5055063;28;20056;-78
2021/12/08 09:30:15;;;;;;;67.38;34.78;;;;;;;-1.48;100.00;99010.09;5064485;28;20099;-78
2021/12/08 09:32:51;;;;;;;61.58;31.77;;;;;;;-1.68;100.00;98981.34;4996031;28;20097;-78
2021/12/08 09:35:17;;;;;;;57.63;32.90;;;;;;;-1.49;100.00;98993.09;5012471;28;20036;-78
2021/12/08 09:37:51;;;;;;;65.75;37.97;;;;;;;-1.47;100.00;99008.41;4989686;28;20553;-77
2021/12/08 09:40:37;;;;;;;64.50;33.40;;;;;;;-1.78;100.00;98942.25;4992721;28;20121;-77
2021/12/08 09:43:33;;;;;;;56.20;31.08;;;;;;;-1.46;100.00;98976.91;4993145;28;20065;-76
2021/12/08 09:46:06;;;;;;;61.35;31.63;;;;;;;-1.58;100.00;98959.97;4934973;29;20043;-76
2021/12/08 09:48:33;;;;;;;57.45;30.67;;;;;;;-1.53;100.00;98964.16;4935109;29;20539;-77
2021/12/08 09:50:59;;;;;;;61.90;30.38;;;;;;;-1.53;100.00;98955.66;4934864;29;20472;-76
2021/12/08 09:53:26;;;;;;;57.95;31.88;;;;;;;-1.49;100.00;98964.16;4934721;29;20518;-77
2021/12/08 09:55:53;;;;;;;53.97;29.13;;;;;;;-1.51;100.00;98953.97;4934729;29;20593;-78
2021/12/08 09:58:19;;;;;;;48.88;26.65;;;;;;;-1.52;100.00;98940.34;4934653;29;20147;-78
2021/12/08 10:00:47;;;;;;;59.65;30.02;;;;;;;-1.54;100.00;98936.94;4934958;29;20563;-79
2021/12/08 10:03:14;;;;;;;69.50;33.88;;;;;;;-1.57;100.00;98941.22;4946890;28;20050;-76
2021/12/08 10:05:41;;;;;;;70.03;35.85;;;;;;;-1.62;100.00;98938.72;4992652;28;20394;-76
2021/12/08 10:08:07;;;;;;;62.80;33.70;;;;;;;-1.72;100.00;98936.28;4992584;28;20084;-76
2021/12/08 10:10:34;;;;;;;55.22;29.05;;;;;;;-1.58;100.00;98942.09;4992393;28;20516;-76
2021/12/08 10:13:02;;;;;;;67.57;33.67;;;;;;;-1.55;100.00;98944.63;4992389;28;20379;-76
2021/12/08 10:15:28;;;;;;;58.03;29.73;;;;;;;-1.65;100.00;98925.13;4990894;28;20070;-76
2021/12/08 10:17:56;;;;;;;60.15;30.48;;;;;;;-1.56;100.00;98918.25;4992382;28;20057;-76
2021/12/08 10:20:31;;;;;;;57.78;31.45;;;;;;;-1.54;100.00;98924.19;4992109;28;20026;-76
2021/12/08 10:23:22;;;;;;;57.85;30.50;;;;;;;-1.48;100.00;98930.09;5029592;28;20476;-76
2021/12/08 10:26:07;;;;;;;59.47;32.55;;;;;;;-1.49;100.00;98929.25;5053883;28;20373;-75
2021/12/08 10:28:38;;;;;;;62.67;30.65;;;;;;;-1.49;100.00;98931.78;5053770;28;20025;-76
2021/12/08 10:31:06;;;;;;;68.07;33.55;;;;;;;-1.51;100.00;98936.09;5053838;28;20431;-75
2021/12/08 10:34:01;;;;;;;58.03;30.08;;;;;;;-1.48;100.00;98940.28;5053452;28;20028;-75
2021/12/08 10:39:00;;;;;;;57.08;29.05;;;;;;;-1.54;100.00;98942.06;5053563;28;20033;-76
2021/12/08 10:41:26;;;;;;;69.50;36.63;;;;;;;-1.61;100.00;98942.13;5053560;28;20040;-76
2021/12/08 10:44:00;;;;;;;57.92;31.92;;;;;;;-1.64;100.00;98943.00;5053514;28;20024;-78
2021/12/08 10:46:35;;;;;;;61.33;32.20;;;;;;;-1.67;100.00;98932.81;5053488;28;20104;-77
2021/12/08 10:54:45;;;;;;;54.58;30.98;;;;;;;-1.59;100.00;98948.06;4972555;28;20097;-77
2021/12/08 10:57:31;;;;;;;55.05;29.30;;;;;;;-1.56;100.00;98951.44;4972033;28;20038;-77
2021/12/08 10:59:56;;;;;;;59.03;32.53;;;;;;;-1.71;100.00;98932.88;4972219;28;20033;-77
2021/12/08 11:02:42;;;;;;;61.50;31.70;;;;;;;-1.61;100.00;98954.88;4972141;28;20035;-78
2021/12/08 11:05:27;;;;;;;62.78;31.45;;;;;;;-1.61;100.00;98944.66;4988197;28;20416;-77
2021/12/08 11:08:14;;;;;;;58.65;32.88;;;;;;;-1.59;100.00;98936.16;4991463;28;20026;-77
2021/12/08 11:10:52;;;;;;;62.65;32.75;;;;;;;-1.69;100.00;98924.31;4991268;28;20046;-77
2021/12/08 11:13:22;;;;;;;65.57;32.90;;;;;;;-1.66;100.00;98926.00;4990770;28;20027;-76
2021/12/08 11:15:56;;;;;;;55.43;33.27;;;;;;;-1.66;100.00;98941.31;4990891;28;20058;-77
2021/12/08 11:18:23;;;;;;;57.30;31.67;;;;;;;-1.69;100.00;98931.13;4974866;28;20262;-79
2021/12/08 11:21:02;;;;;;;52.92;29.92;;;;;;;-1.72;100.00;98918.41;4991244;28;20576;-79
2021/12/08 11:23:42;;;;;;;63.97;34.65;;;;;;;-1.72;100.00;98916.69;4974443;28;20482;-78
2021/12/08 11:26:28;;;;;;;45.58;26.80;;;;;;;-1.66;100.00;98926.00;4991048;28;20038;-79
2021/12/08 11:28:59;;;;;;;62.67;31.60;;;;;;;-1.73;100.00;98898.81;5018471;28;20068;-78
2021/12/08 11:31:29;;;;;;;70.10;36.55;;;;;;;-1.70;100.00;98904.75;5052500;28;20021;-78
2021/12/08 11:34:00;;;;;;;59.92;33.38;;;;;;;-1.70;100.00;98904.75;5052542;28;20033;-78
2021/12/08 11:36:27;;;;;;;;;;;;;;;-1.65;100.00;98910.66;5052878;28;20074;-79
2021/12/08 11:38:53;;;;;;;55.83;31.65;;;;;;;-1.66;100.00;98897.91;5068687;28;19912;-79
2021/12/08 11:41:35;;;;;;;63.25;31.48;;;;;;;-1.72;100.00;98887.78;5072532;28;20094;-79
2021/12/08 11:44:09;;;;;;;58.70;32.40;;;;;;;-1.78;100.00;98873.34;5072488;28;20017;-79
2021/12/08 11:46:40;;;;;;;113.63;48.20;;;;;;;-1.68;100.00;98885.19;5072284;28;20243;-79
2021/12/08 11:49:10;;;;;;;88.07;41.30;;;;;;;-1.70;100.00;98881.78;5054365;28;20162;-79
2021/12/08 11:51:42;;;;;;;55.83;30.38;;;;;;;-1.61;100.00;98891.91;5054473;28;20081;-80
2021/12/08 11:54:08;;;;;;;57.15;31.75;;;;;;;-1.72;100.00;98868.19;5072282;28;20020;-77
2021/12/08 11:56:39;;;;;;;56.97;33.10;;;;;;;-1.74;100.00;98882.66;5054131;28;20349;-78
2021/12/08 11:59:10;;;;;;;61.03;32.15;;;;;;;-1.78;100.00;98868.25;5072083;28;20123;-78
2021/12/08 12:01:37;;;;;;;64.40;34.90;;;;;;;-1.80;100.00;98869.97;5054416;28;20085;-78
2021/12/08 12:04:05;;;;;;;55.13;30.80;;;;;;;-1.73;100.00;98874.13;5072198;28;20023;-78
2021/12/08 12:06:32;;;;;;;68.38;36.85;;;;;;;-1.80;100.00;98858.06;5071846;28;20107;-77
2021/12/08 12:08:59;;;;;;;61.10;35.00;;;;;;;-1.73;100.00;98878.41;5054020;28;20375;-79
2021/12/08 12:11:29;;;;;;;62.08;33.03;;;;;;;-1.75;100.00;98875.88;5053724;28;20578;-78
2021/12/08 12:13:56;;;;;;;66.40;38.35;;;;;;;-1.92;100.00;98855.63;5072080;28;20036;-77
2021/12/08 12:16:22;;;;;;;56.92;33.25;;;;;;;-1.84;100.00;98869.16;5071527;28;20048;-78
2021/12/08 12:18:52;;;;;;;52.85;31.42;;;;;;;-1.76;100.00;98851.22;5072041;28;20028;-78